createdAt,value
2022-10-19T00:01:19.528Z,13.10
2022-10-19T00:06:29.896Z,14.20
2022-10-19T00:09:01.142Z,13.90
2022-10-19T00:11:30.053Z,10.20
2022-10-19T00:13:59.296Z,11.10
2022-10-19T00:16:30.286Z,10.40
2022-10-19T00:19:03.124Z,11.70
2022-10-19T00:21:31.019Z,10.50
2022-10-19T00:23:59.041Z,9.30
2022-10-19T00:26:27.264Z,12.80
2022-10-19T00:28:56.418Z,11.20
2022-10-19T00:31:25.544Z,12.20
2022-10-19T00:33:55.851Z,13.00
2022-10-19T00:36:25.188Z,10.70
2022-10-19T00:38:54.888Z,11.40
2022-10-19T00:41:25.132Z,11.20
2022-10-19T00:43:58.017Z,8.70
2022-10-19T00:46:28.749Z,13.70
2022-10-19T00:49:05.955Z,12.60
2022-10-19T00:51:41.477Z,10.60
2022-10-19T00:54:10.235Z,17.10
2022-10-19T00:56:42.716Z,10.30
2022-10-19T00:59:14.096Z,8.60
2022-10-19T01:01:44.438Z,8.40
2022-10-19T01:04:13.448Z,7.50
2022-10-19T01:06:42.212Z,8.90
2022-10-19T01:09:10.406Z,10.60
2022-10-19T01:11:51.747Z,10.20
2022-10-19T01:14:31.737Z,8.50
2022-10-19T01:17:11.516Z,9.90
2022-10-19T01:19:50.475Z,10.40
2022-10-19T01:22:57.719Z,9.20
2022-10-19T01:25:31.452Z,7.60
2022-10-19T01:28:32.897Z,9.20
2022-10-19T01:31:19.210Z,11.10
2022-10-19T01:34:02.114Z,8.20
2022-10-19T01:36:39.181Z,10.60
2022-10-19T01:39:16.401Z,7.60
2022-10-19T01:42:05.748Z,10.70
2022-10-19T01:45:14.027Z,7.70
2022-10-19T01:47:54.634Z,8.40
2022-10-19T01:50:30.330Z,9.90
2022-10-19T01:52:59.757Z,9.40
2022-10-19T01:55:28.671Z,11.40
2022-10-19T01:58:07.107Z,10.80
2022-10-19T02:00:40.030Z,9.80
2022-10-19T02:03:10.237Z,8.20
2022-10-19T02:05:40.676Z,7.60
2022-10-19T02:08:14.672Z,11.90
2022-10-19T02:10:45.346Z,15.60
2022-10-19T02:13:16.495Z,9.20
2022-10-19T02:15:47.994Z,10.50
2022-10-19T02:18:21.487Z,10.10
2022-10-19T02:20:49.441Z,8.70
2022-10-19T02:23:20.848Z,8.60
2022-10-19T02:25:48.741Z,9.40
2022-10-19T02:28:16.796Z,10.60
2022-10-19T02:30:44.661Z,11.10
2022-10-19T02:33:12.791Z,11.10
2022-10-19T02:35:40.840Z,10.70
2022-10-19T02:38:11.675Z,16.60
2022-10-19T02:40:45.461Z,11.90
2022-10-19T02:43:19.282Z,9.80
2022-10-19T02:48:23.527Z,8.60
2022-10-19T02:50:52.149Z,11.30
2022-10-19T02:53:19.948Z,10.20
2022-10-19T02:55:49.145Z,10.50
2022-10-19T02:58:17.032Z,9.60
2022-10-19T03:00:44.930Z,10.50
2022-10-19T03:03:12.939Z,8.60
2022-10-19T03:05:40.735Z,9.50
2022-10-19T03:08:08.590Z,8.40
2022-10-19T03:10:36.449Z,8.30
2022-10-19T03:13:04.185Z,7.30
2022-10-19T03:15:31.856Z,10.30
2022-10-19T03:17:59.715Z,9.00
2022-10-19T03:20:27.646Z,8.50
2022-10-19T03:22:55.419Z,11.40
2022-10-19T03:25:23.166Z,9.20
2022-10-19T03:27:50.964Z,8.20
2022-10-19T03:30:18.738Z,10.80
2022-10-19T03:32:46.518Z,8.60
2022-10-19T03:35:14.375Z,8.70
2022-10-19T03:37:42.125Z,10.20
2022-10-19T03:40:10.188Z,11.90
2022-10-19T03:42:37.933Z,7.80
2022-10-19T03:45:06.217Z,8.40
2022-10-19T03:47:34.331Z,9.80
2022-10-19T03:50:02.236Z,10.50
2022-10-19T03:52:30.056Z,8.70
2022-10-19T03:54:57.832Z,9.60
2022-10-19T03:57:25.629Z,12.50
2022-10-19T03:59:53.492Z,8.00
2022-10-19T04:02:21.254Z,9.20
2022-10-19T04:04:49.024Z,9.20
2022-10-19T04:07:16.762Z,12.00
2022-10-19T04:09:44.694Z,11.20
2022-10-19T04:12:12.618Z,12.00
2022-10-19T04:14:56.219Z,11.20
2022-10-19T04:17:25.898Z,9.10
2022-10-19T04:19:53.791Z,10.50
2022-10-19T04:22:21.585Z,10.50
2022-10-19T04:24:49.373Z,10.40
2022-10-19T04:27:17.486Z,12.20
2022-10-19T04:29:45.245Z,9.60
2022-10-19T04:32:16.158Z,10.90
2022-10-19T04:34:43.932Z,11.50
2022-10-19T04:37:11.867Z,10.50
2022-10-19T04:39:41.250Z,12.90
2022-10-19T04:42:08.997Z,9.50
2022-10-19T04:44:36.788Z,14.10
2022-10-19T04:47:04.555Z,8.60
2022-10-19T04:49:32.561Z,11.10
2022-10-19T04:52:00.289Z,12.50
2022-10-19T04:54:28.073Z,15.60
2022-10-19T04:56:56.941Z,9.60
2022-10-19T04:59:24.783Z,11.70
2022-10-19T05:01:52.578Z,11.80
2022-10-19T05:04:20.420Z,8.90
2022-10-19T05:06:48.198Z,11.70
2022-10-19T05:09:16.173Z,10.80
2022-10-19T05:11:43.979Z,9.80
2022-10-19T05:14:11.707Z,7.70
2022-10-19T05:16:39.505Z,7.50
2022-10-19T05:19:08.029Z,8.20
2022-10-19T05:21:35.941Z,9.00
2022-10-19T05:24:04.007Z,9.40
2022-10-19T05:26:31.844Z,7.00
2022-10-19T05:29:04.562Z,6.90
2022-10-19T05:31:34.576Z,11.30
2022-10-19T05:34:04.109Z,11.10
2022-10-19T05:36:35.253Z,10.20
2022-10-19T05:39:17.593Z,9.50
2022-10-19T05:41:46.789Z,13.20
2022-10-19T05:44:19.878Z,9.80
2022-10-19T05:46:49.829Z,12.90
2022-10-19T05:49:19.940Z,11.40
2022-10-19T05:51:47.802Z,10.00
2022-10-19T05:54:15.537Z,8.10
2022-10-19T05:56:43.777Z,12.40
2022-10-19T05:59:18.733Z,11.60
2022-10-19T06:01:47.545Z,12.00
2022-10-19T06:06:48.219Z,9.90
2022-10-19T06:09:16.089Z,12.60
2022-10-19T06:11:44.058Z,9.20
2022-10-19T06:14:14.628Z,6.40
2022-10-19T06:16:42.813Z,6.40
2022-10-19T06:19:10.571Z,9.00
2022-10-19T06:21:40.674Z,8.70
2022-10-19T06:24:11.909Z,8.90
2022-10-19T06:26:39.797Z,10.10
2022-10-19T06:29:07.510Z,7.20
2022-10-19T06:31:36.674Z,12.50
2022-10-19T06:34:05.121Z,12.20
2022-10-19T06:36:33.613Z,14.60
2022-10-19T06:39:02.128Z,16.10
2022-10-19T06:41:31.605Z,14.50
2022-10-19T06:43:59.389Z,10.00
2022-10-19T06:46:27.924Z,10.70
2022-10-19T06:48:58.336Z,14.10
2022-10-19T06:51:27.878Z,12.10
2022-10-19T06:53:57.231Z,9.00
2022-10-19T06:56:26.799Z,9.20
2022-10-19T06:58:55.435Z,10.00
2022-10-19T07:01:24.445Z,9.40
2022-10-19T07:03:53.194Z,7.10
2022-10-19T07:06:21.724Z,7.20
2022-10-19T07:08:49.672Z,9.60
2022-10-19T07:11:20.098Z,14.70
2022-10-19T07:13:48.148Z,11.10
2022-10-19T07:16:21.108Z,7.30
2022-10-19T07:18:52.000Z,8.70
2022-10-19T07:21:22.576Z,9.10
2022-10-19T07:23:50.731Z,7.70
2022-10-19T07:26:23.869Z,6.20
2022-10-19T07:28:52.147Z,9.10
2022-10-19T07:31:22.390Z,9.70
2022-10-19T07:34:01.140Z,12.20
2022-10-19T07:36:31.157Z,9.30
2022-10-19T07:39:01.334Z,9.70
2022-10-19T07:41:29.173Z,10.80
2022-10-19T07:43:58.084Z,5.60
2022-10-19T07:46:33.881Z,12.60
2022-10-19T07:49:04.735Z,15.00
2022-10-19T07:51:32.548Z,9.30
2022-10-19T07:54:00.404Z,10.00
2022-10-19T07:56:28.884Z,11.40
2022-10-19T07:58:58.944Z,9.50
2022-10-19T08:01:35.269Z,11.80
2022-10-19T08:06:51.049Z,8.10
2022-10-19T08:09:50.748Z,8.40
2022-10-19T08:12:07.277Z,11.50
2022-10-19T08:14:35.721Z,8.10
2022-10-19T08:17:03.501Z,9.30
2022-10-19T08:19:31.461Z,6.50
2022-10-19T08:21:59.224Z,10.60
2022-10-19T08:24:26.972Z,9.20
2022-10-19T08:26:54.870Z,9.10
2022-10-19T08:29:23.794Z,13.30
2022-10-19T08:31:53.403Z,10.00
2022-10-19T08:34:21.249Z,12.40
2022-10-19T08:36:49.028Z,12.80
2022-10-19T08:39:17.883Z,8.40
2022-10-19T08:41:57.759Z,6.80
2022-10-19T08:44:44.828Z,10.10
2022-10-19T08:47:35.861Z,12.00
2022-10-19T08:50:16.828Z,9.20
2022-10-19T08:52:47.598Z,11.30
2022-10-19T08:55:30.948Z,13.30
2022-10-19T08:58:07.750Z,10.30
2022-10-19T09:00:50.098Z,13.20
2022-10-19T09:03:56.967Z,16.70
2022-10-19T09:06:57.343Z,11.30
2022-10-19T09:09:26.801Z,13.80
2022-10-19T09:12:03.055Z,12.20
2022-10-19T09:14:38.590Z,10.90
2022-10-19T09:17:13.155Z,12.80
2022-10-19T09:19:40.971Z,12.70
2022-10-19T09:22:18.740Z,10.70
2022-10-19T09:24:52.693Z,10.30
2022-10-19T09:27:26.152Z,12.10
2022-10-19T09:29:59.506Z,12.40
2022-10-19T09:32:39.126Z,9.60
2022-10-19T09:35:08.584Z,9.20
2022-10-19T09:37:43.147Z,12.80
2022-10-19T09:40:19.449Z,10.70
2022-10-19T09:42:51.147Z,17.70
2022-10-19T09:45:31.667Z,17.00
2022-10-19T09:48:08.724Z,18.50
2022-10-19T09:50:44.454Z,18.50
2022-10-19T09:53:20.475Z,21.10
2022-10-19T09:55:53.587Z,17.80
2022-10-19T09:58:29.120Z,15.00
2022-10-19T10:01:01.332Z,21.70
2022-10-19T10:03:43.494Z,18.00
2022-10-19T10:06:17.258Z,12.10
2022-10-19T10:08:50.864Z,11.50
2022-10-19T10:11:30.939Z,9.90
2022-10-19T10:14:07.537Z,11.00
2022-10-19T10:16:37.842Z,10.80
2022-10-19T10:19:13.310Z,12.10
2022-10-19T10:21:47.327Z,12.20
2022-10-19T10:24:16.589Z,12.40
2022-10-19T10:26:50.561Z,12.60
2022-10-19T10:29:27.025Z,12.50
2022-10-19T10:32:21.648Z,9.20
2022-10-19T10:35:01.281Z,12.40
2022-10-19T10:37:44.417Z,12.40
2022-10-19T10:40:28.672Z,10.50
2022-10-19T10:43:02.484Z,15.80
2022-10-19T10:48:41.217Z,13.70
2022-10-19T10:51:30.812Z,12.30
2022-10-19T10:54:20.564Z,13.70
2022-10-19T10:57:16.701Z,11.90
2022-10-19T10:59:55.926Z,13.60
2022-10-19T11:02:30.479Z,11.20
2022-10-19T11:05:24.226Z,13.80
2022-10-19T11:08:20.897Z,12.20
2022-10-19T11:10:55.372Z,12.90
2022-10-19T11:13:31.579Z,13.00
2022-10-19T11:16:11.066Z,10.30
2022-10-19T11:18:47.488Z,10.10
2022-10-19T11:21:34.617Z,16.70
2022-10-19T11:24:23.208Z,11.60
2022-10-19T11:27:22.180Z,16.30
2022-10-19T11:30:08.587Z,14.90
2022-10-19T11:32:46.855Z,17.60
2022-10-19T11:35:39.197Z,14.20
2022-10-19T11:38:29.605Z,14.30
2022-10-19T11:41:30.832Z,15.50
2022-10-19T11:44:36.537Z,10.80
2022-10-19T11:47:16.493Z,11.50
2022-10-19T11:50:25.086Z,13.20
2022-10-19T11:53:29.739Z,17.90
2022-10-19T11:56:13.576Z,12.80
2022-10-19T11:58:53.104Z,10.80
2022-10-19T12:01:54.430Z,14.00
2022-10-19T12:04:41.047Z,15.70
2022-10-19T12:07:50.854Z,11.70
2022-10-19T12:10:26.230Z,11.70
2022-10-19T12:12:59.093Z,15.00
2022-10-19T12:15:32.415Z,12.10
2022-10-19T12:18:07.212Z,14.50
2022-10-19T12:20:43.769Z,13.10
2022-10-19T12:23:21.541Z,13.00
2022-10-19T12:25:50.889Z,18.50
2022-10-19T12:28:27.940Z,16.80
2022-10-19T12:30:58.129Z,19.80
2022-10-19T12:33:29.229Z,17.50
2022-10-19T12:36:12.875Z,17.10
2022-10-19T12:39:22.630Z,13.60
2022-10-19T12:42:10.757Z,14.50
2022-10-19T12:44:56.255Z,13.90
2022-10-19T12:47:26.815Z,14.80
2022-10-19T12:49:56.333Z,12.90
2022-10-19T12:52:52.368Z,11.40
2022-10-19T12:55:34.643Z,14.90
2022-10-19T12:58:20.116Z,12.20
2022-10-19T13:00:59.957Z,14.30
2022-10-19T13:03:33.391Z,12.80
2022-10-19T13:06:10.276Z,11.80
2022-10-19T13:08:46.466Z,12.80
2022-10-19T13:11:15.837Z,11.70
2022-10-19T13:13:58.097Z,11.00
2022-10-19T13:16:28.941Z,9.70
2022-10-19T13:18:59.628Z,11.10
2022-10-19T13:21:47.964Z,17.40
2022-10-19T13:24:24.825Z,12.30
2022-10-19T13:27:04.788Z,12.50
2022-10-19T13:29:41.308Z,12.90
2022-10-19T13:32:44.436Z,12.30
2022-10-19T13:35:34.356Z,13.40
2022-10-19T13:38:17.454Z,13.90
2022-10-19T13:40:50.998Z,14.20
2022-10-19T13:43:21.493Z,15.60
2022-10-19T13:45:59.571Z,13.60
2022-10-19T13:48:37.089Z,18.20
2022-10-19T13:51:23.247Z,13.20
2022-10-19T13:54:17.183Z,11.50
2022-10-19T13:57:03.844Z,13.20
2022-10-19T14:00:03.157Z,15.10
2022-10-19T14:02:51.121Z,13.40
2022-10-19T14:05:25.249Z,19.70
2022-10-19T14:08:12.055Z,17.90
2022-10-19T14:11:00.231Z,14.60
2022-10-19T14:13:28.928Z,15.60
2022-10-19T14:15:58.692Z,16.20
2022-10-19T14:18:30.602Z,15.40
2022-10-19T14:21:07.453Z,19.70
2022-10-19T14:23:37.310Z,13.70
2022-10-19T14:26:24.819Z,16.30
2022-10-19T14:28:54.561Z,15.00
2022-10-19T14:31:35.408Z,16.60
2022-10-19T14:34:04.746Z,15.50
2022-10-19T14:36:43.844Z,14.50
2022-10-19T14:39:27.653Z,12.80
2022-10-19T14:41:55.959Z,13.20
2022-10-19T14:44:41.246Z,13.80
2022-10-19T14:47:27.375Z,15.40
2022-10-19T14:49:55.277Z,15.60
2022-10-19T14:52:31.557Z,13.90
2022-10-19T14:55:05.489Z,17.30
2022-10-19T14:57:36.754Z,15.10
2022-10-19T15:00:11.728Z,13.40
2022-10-19T15:02:47.317Z,19.60
2022-10-19T15:05:24.789Z,12.40
2022-10-19T15:07:54.732Z,14.60
2022-10-19T15:10:51.104Z,15.50
2022-10-19T15:13:28.986Z,13.70
2022-10-19T15:15:56.844Z,14.40
2022-10-19T15:18:47.831Z,13.80
2022-10-19T15:21:19.175Z,13.30
2022-10-19T15:23:51.748Z,14.60
2022-10-19T15:26:27.438Z,11.60
2022-10-19T15:29:08.840Z,17.90
2022-10-19T15:31:36.684Z,14.10
2022-10-19T15:34:05.492Z,14.10
2022-10-19T15:36:33.615Z,13.70
2022-10-19T15:39:32.953Z,18.20
2022-10-19T15:42:32.052Z,12.50
2022-10-19T15:45:00.442Z,12.50
2022-10-19T15:47:28.439Z,13.10
2022-10-19T15:49:59.706Z,12.70
2022-10-19T15:52:30.654Z,11.10
2022-10-19T15:54:59.767Z,12.60
2022-10-19T15:57:34.736Z,13.70
2022-10-19T16:00:15.024Z,12.50
2022-10-19T16:02:43.377Z,13.70
2022-10-19T16:05:11.743Z,13.60
2022-10-19T16:07:41.588Z,11.70
2022-10-19T16:10:17.136Z,12.30
2022-10-19T16:12:45.106Z,11.50
2022-10-19T16:15:16.337Z,13.50
2022-10-19T16:17:47.388Z,12.90
2022-10-19T16:20:15.545Z,15.00
2022-10-19T16:22:44.566Z,14.00
2022-10-19T16:25:14.277Z,12.50
2022-10-19T16:27:42.173Z,15.10
2022-10-19T16:30:10.763Z,12.80
2022-10-19T16:32:40.011Z,14.50
2022-10-19T16:35:11.668Z,16.70
2022-10-19T16:37:39.518Z,16.40
2022-10-19T16:40:08.101Z,14.50
2022-10-19T16:42:36.271Z,21.60
2022-10-19T16:45:04.509Z,15.60
2022-10-19T16:47:32.334Z,13.10
2022-10-19T16:50:01.720Z,15.10
2022-10-19T16:52:31.988Z,15.00
2022-10-19T16:55:00.349Z,11.30
2022-10-19T16:57:28.371Z,15.20
2022-10-19T16:59:56.265Z,13.40
2022-10-19T17:02:24.147Z,16.80
2022-10-19T17:04:52.156Z,16.90
2022-10-19T17:07:19.987Z,13.80
2022-10-19T17:09:49.836Z,12.60
2022-10-19T17:12:20.472Z,13.20
2022-10-19T17:14:48.588Z,16.20
2022-10-19T17:17:17.263Z,15.10
2022-10-19T17:19:45.039Z,14.50
2022-10-19T17:22:12.842Z,15.50
2022-10-19T17:24:40.743Z,15.30
2022-10-19T17:27:08.754Z,13.50
2022-10-19T17:29:36.564Z,13.00
2022-10-19T17:32:04.481Z,15.80
2022-10-19T17:34:32.496Z,15.70
2022-10-19T17:37:00.526Z,23.80
2022-10-19T17:39:29.960Z,18.00
2022-10-19T17:42:02.239Z,15.80
2022-10-19T17:44:31.566Z,18.20
2022-10-19T17:47:01.450Z,18.50
2022-10-19T17:49:30.000Z,17.60
2022-10-19T17:51:58.473Z,16.50
2022-10-19T17:54:26.792Z,20.70
2022-10-19T17:56:54.911Z,18.60
2022-10-19T17:59:34.848Z,17.20
2022-10-19T18:02:04.725Z,16.70
2022-10-19T18:04:32.824Z,18.00
2022-10-19T18:07:01.782Z,17.10
2022-10-19T18:09:33.038Z,16.80
2022-10-19T18:12:04.884Z,16.50
2022-10-19T18:14:35.574Z,17.60
2022-10-19T18:17:03.388Z,16.90
2022-10-19T18:19:31.381Z,19.70
2022-10-19T18:21:59.196Z,15.00
2022-10-19T18:24:27.717Z,17.00
2022-10-19T18:26:55.641Z,15.50
2022-10-19T18:29:26.559Z,17.30
2022-10-19T18:31:55.214Z,18.80
2022-10-19T18:34:25.709Z,15.60
2022-10-19T18:36:54.743Z,14.10
2022-10-19T18:39:23.036Z,17.70
2022-10-19T18:41:55.045Z,15.30
2022-10-19T18:44:27.167Z,18.50
2022-10-19T18:46:57.507Z,15.30
2022-10-19T18:49:25.921Z,17.50
2022-10-19T18:51:55.719Z,14.10
2022-10-19T18:54:26.500Z,17.90
2022-10-19T18:56:55.395Z,15.00
2022-10-19T18:59:23.870Z,16.20
2022-10-19T19:01:52.163Z,17.40
2022-10-19T19:04:20.005Z,17.20
2022-10-19T19:06:47.848Z,17.50
2022-10-19T19:09:17.438Z,18.20
2022-10-19T19:11:45.646Z,15.70
2022-10-19T19:14:17.163Z,17.10
2022-10-19T19:16:45.479Z,15.80
2022-10-19T19:19:16.075Z,18.50
2022-10-19T19:21:45.102Z,15.60
2022-10-19T19:24:16.966Z,15.50
2022-10-19T19:26:52.828Z,14.90
2022-10-19T19:29:22.249Z,15.80
2022-10-19T19:31:51.683Z,12.40
2022-10-19T19:34:19.495Z,12.40
2022-10-19T19:36:48.533Z,13.80
2022-10-19T19:39:20.182Z,13.90
2022-10-19T19:41:49.711Z,11.10
2022-10-19T19:44:18.067Z,11.00
2022-10-19T19:46:45.842Z,15.10
2022-10-19T19:49:14.372Z,12.40
2022-10-19T19:51:42.499Z,12.70
2022-10-19T19:54:11.468Z,10.00
2022-10-19T19:56:40.119Z,11.90
2022-10-19T19:59:12.655Z,10.20
2022-10-19T20:01:41.244Z,12.90
2022-10-19T20:04:09.780Z,10.10
2022-10-19T20:06:39.001Z,11.10
2022-10-19T20:09:08.427Z,9.70
2022-10-19T20:11:41.901Z,9.60
2022-10-19T20:14:11.690Z,11.40
2022-10-19T20:16:40.374Z,11.60
2022-10-19T20:19:11.339Z,9.00
2022-10-19T20:21:40.031Z,9.70
2022-10-19T20:24:07.969Z,10.20
2022-10-19T20:26:36.138Z,8.20
2022-10-19T20:29:05.333Z,10.80
2022-10-19T20:31:39.393Z,14.30
2022-10-19T20:34:13.957Z,8.20
2022-10-19T20:36:42.778Z,8.90
2022-10-19T20:39:10.610Z,10.80
2022-10-19T20:41:39.053Z,9.80
2022-10-19T20:44:07.278Z,8.30
2022-10-19T20:46:37.125Z,10.30
2022-10-19T20:49:05.628Z,9.20
2022-10-19T20:51:36.932Z,9.70
2022-10-19T20:54:12.304Z,9.00
2022-10-19T20:56:42.315Z,12.30
2022-10-19T20:59:28.313Z,7.70
2022-10-19T21:01:57.493Z,7.80
2022-10-19T21:04:28.734Z,9.50
2022-10-19T21:06:57.327Z,8.40
2022-10-19T21:09:26.047Z,7.60
2022-10-19T21:11:53.859Z,8.80
2022-10-19T21:14:28.004Z,10.60
2022-10-19T21:16:58.469Z,7.20
2022-10-19T21:19:28.220Z,8.40
2022-10-19T21:22:01.583Z,18.50
2022-10-19T21:24:35.540Z,9.70
2022-10-19T21:29:33.009Z,9.50
2022-10-19T21:32:00.811Z,8.40
2022-10-19T21:34:32.279Z,9.80
2022-10-19T21:37:00.211Z,7.60
2022-10-19T21:39:28.560Z,7.10
2022-10-19T21:41:56.445Z,8.40
2022-10-19T21:44:24.372Z,8.20
2022-10-19T21:46:52.156Z,9.40
2022-10-19T21:49:23.229Z,6.10
2022-10-19T21:51:54.353Z,9.40
2022-10-19T21:54:29.200Z,9.70
2022-10-19T21:56:58.522Z,8.70
2022-10-19T21:59:26.418Z,10.20
2022-10-19T22:01:55.345Z,8.10
2022-10-19T22:04:23.712Z,12.70
2022-10-19T22:06:51.542Z,9.40
2022-10-19T22:09:21.925Z,7.70
2022-10-19T22:11:49.756Z,9.00
2022-10-19T22:14:18.048Z,10.00
2022-10-19T22:16:45.925Z,7.50
2022-10-19T22:19:14.274Z,7.10
2022-10-19T22:21:42.023Z,9.50
2022-10-19T22:24:14.832Z,8.20
2022-10-19T22:26:46.392Z,7.20
2022-10-19T22:29:14.765Z,7.90
2022-10-19T22:31:43.197Z,7.20
2022-10-19T22:34:14.572Z,10.30
2022-10-19T22:36:42.843Z,8.20
2022-10-19T22:39:11.028Z,8.70
2022-10-19T22:41:38.728Z,7.30
2022-10-19T22:44:06.457Z,9.30
2022-10-19T22:46:34.400Z,10.10
2022-10-19T22:49:02.226Z,10.40
2022-10-19T22:51:30.197Z,8.80
2022-10-19T22:53:58.016Z,9.90
2022-10-19T22:56:25.868Z,8.40
2022-10-19T22:58:53.632Z,7.60
2022-10-19T23:01:21.574Z,7.70
2022-10-19T23:03:49.407Z,7.00
2022-10-19T23:06:17.249Z,7.40
2022-10-19T23:08:45.456Z,8.90
2022-10-19T23:11:14.377Z,9.70
2022-10-19T23:13:42.874Z,9.30
2022-10-19T23:16:10.990Z,7.00
2022-10-19T23:18:40.501Z,6.90
2022-10-19T23:21:11.947Z,7.50
2022-10-19T23:23:40.240Z,7.90
2022-10-19T23:26:14.673Z,11.10
2022-10-19T23:28:44.906Z,7.40
2022-10-19T23:31:14.012Z,7.60
2022-10-19T23:33:43.055Z,7.30
2022-10-19T23:36:16.103Z,9.80
2022-10-19T23:38:45.161Z,9.30
2022-10-19T23:41:13.794Z,7.90
2022-10-19T23:43:42.669Z,6.70
2022-10-19T23:46:11.050Z,8.50
2022-10-19T23:48:39.218Z,7.30
2022-10-19T23:51:09.432Z,8.50
2022-10-19T23:53:41.188Z,6.90
2022-10-19T23:56:29.639Z,6.50
2022-10-19T23:58:57.524Z,5.90
